createdAt,value
2018-06-09T00:00:15.721Z,7.95
2018-06-09T00:02:44.427Z,9.15
2018-06-09T00:05:13.087Z,9.98
2018-06-09T00:07:41.833Z,10.23
2018-06-09T00:10:10.542Z,8.70
2018-06-09T00:12:39.362Z,10.18
2018-06-09T00:15:07.974Z,11.43
2018-06-09T00:17:36.787Z,9.98
2018-06-09T00:20:05.485Z,9.35
2018-06-09T00:22:34.279Z,11.53
2018-06-09T00:25:03.011Z,8.63
2018-06-09T00:27:31.829Z,8.48
2018-06-09T00:30:00.519Z,11.78
2018-06-09T00:32:29.206Z,9.48
2018-06-09T00:34:57.995Z,8.58
2018-06-09T00:37:26.701Z,11.97
2018-06-09T00:39:55.407Z,10.60
2018-06-09T00:42:23.691Z,12.80
2018-06-09T00:44:52.358Z,13.30
2018-06-09T00:47:21.214Z,12.17
2018-06-09T00:49:49.798Z,12.37
2018-06-09T00:52:18.450Z,12.57
2018-06-09T00:54:47.138Z,11.55
2018-06-09T00:57:15.875Z,11.65
2018-06-09T00:59:44.603Z,9.88
2018-06-09T01:02:13.252Z,8.70
2018-06-09T01:04:41.960Z,10.43
2018-06-09T01:07:10.584Z,11.12
2018-06-09T01:09:39.387Z,11.95
2018-06-09T01:12:08.107Z,11.48
2018-06-09T01:14:36.772Z,11.50
2018-06-09T01:17:05.491Z,12.20
2018-06-09T01:19:34.208Z,13.43
2018-06-09T01:22:02.493Z,16.37
2018-06-09T01:24:30.933Z,14.98
2018-06-09T01:26:59.721Z,14.80
2018-06-09T01:29:28.415Z,14.70
2018-06-09T01:31:57.099Z,14.70
2018-06-09T01:34:25.927Z,15.53
2018-06-09T01:36:54.812Z,14.20
2018-06-09T01:39:23.494Z,16.17
2018-06-09T01:41:52.201Z,17.00
2018-06-09T01:44:20.813Z,14.83
2018-06-09T01:46:49.805Z,14.90
2018-06-09T01:49:18.479Z,22.52
2018-06-09T01:51:47.052Z,15.38
2018-06-09T01:54:15.764Z,14.93
2018-06-09T01:56:44.416Z,15.23
2018-06-09T01:59:13.093Z,14.13
2018-06-09T02:01:41.776Z,13.75
2018-06-09T02:04:10.702Z,15.37
2018-06-09T02:06:39.361Z,14.30
2018-06-09T02:09:09.354Z,14.30
2018-06-09T02:11:38.260Z,15.80
2018-06-09T02:14:07.107Z,13.58
2018-06-09T02:16:35.798Z,14.90
2018-06-09T02:19:04.518Z,13.50
2018-06-09T02:21:33.361Z,15.70
2018-06-09T02:24:01.922Z,12.95
2018-06-09T02:26:30.915Z,13.45
2018-06-09T02:28:59.575Z,13.40
2018-06-09T02:31:28.405Z,14.63
2018-06-09T02:33:56.823Z,12.80
2018-06-09T02:36:25.696Z,15.40
2018-06-09T02:38:54.516Z,13.08
2018-06-09T02:41:23.356Z,16.23
2018-06-09T02:43:52.162Z,12.63
2018-06-09T02:46:20.911Z,14.35
2018-06-09T02:48:49.512Z,11.50
2018-06-09T02:51:18.290Z,11.55
2018-06-09T02:53:46.981Z,11.93
2018-06-09T02:56:15.820Z,13.13
2018-06-09T02:58:44.270Z,14.07
2018-06-09T03:01:12.962Z,15.07
2018-06-09T03:03:41.685Z,14.47
2018-06-09T03:06:10.398Z,13.25
2018-06-09T03:08:39.099Z,15.30
2018-06-09T03:11:07.850Z,13.70
2018-06-09T03:13:36.507Z,16.00
2018-06-09T03:16:05.263Z,13.95
2018-06-09T03:18:34.027Z,15.58
2018-06-09T03:21:02.784Z,14.35
2018-06-09T03:23:31.175Z,14.78
2018-06-09T03:25:59.941Z,12.45
2018-06-09T03:28:28.887Z,14.90
2018-06-09T03:30:57.567Z,12.98
2018-06-09T03:33:26.321Z,12.68
2018-06-09T03:35:55.039Z,12.70
2018-06-09T03:38:23.688Z,12.65
2018-06-09T03:40:52.416Z,15.05
2018-06-09T03:43:21.137Z,14.63
2018-06-09T03:45:49.775Z,12.18
2018-06-09T03:48:18.162Z,14.20
2018-06-09T03:50:46.778Z,13.62
2018-06-09T03:53:15.538Z,13.08
2018-06-09T03:55:44.214Z,13.10
2018-06-09T03:58:12.880Z,12.37
2018-06-09T04:00:41.601Z,15.13
2018-06-09T04:03:10.381Z,14.90
2018-06-09T04:05:39.087Z,12.15
2018-06-09T04:08:07.847Z,11.78
2018-06-09T04:10:36.228Z,13.25
2018-06-09T04:13:05.200Z,14.85
2018-06-09T04:15:33.935Z,10.85
2018-06-09T04:18:02.686Z,13.85
2018-06-09T04:20:31.408Z,13.35
2018-06-09T04:23:00.164Z,13.62
2018-06-09T04:25:28.884Z,12.18
2018-06-09T04:27:57.728Z,11.25
2018-06-09T04:30:26.475Z,11.50
2018-06-09T04:32:55.295Z,10.55
2018-06-09T04:35:24.108Z,11.03
2018-06-09T04:37:52.780Z,9.75
2018-06-09T04:40:21.518Z,10.58
2018-06-09T04:42:50.285Z,12.25
2018-06-09T04:45:19.038Z,12.03
2018-06-09T04:47:47.849Z,11.65
2018-06-09T04:50:16.682Z,10.53
2018-06-09T04:52:45.506Z,9.83
2018-06-09T04:55:14.353Z,11.15
2018-06-09T04:57:42.662Z,11.50
2018-06-09T05:00:12.226Z,12.37
2018-06-09T05:02:41.043Z,12.85
2018-06-09T05:05:09.835Z,14.60
2018-06-09T05:07:38.706Z,12.20
2018-06-09T05:10:07.682Z,10.33
2018-06-09T05:12:36.066Z,13.43
2018-06-09T05:15:04.786Z,12.47
2018-06-09T05:17:33.701Z,14.78
2018-06-09T05:20:02.447Z,12.60
2018-06-09T05:22:31.143Z,11.95
2018-06-09T05:24:59.764Z,11.83
2018-06-09T05:27:28.536Z,12.30
2018-06-09T05:29:56.970Z,11.28
2018-06-09T05:32:25.691Z,11.08
2018-06-09T05:34:54.355Z,11.05
2018-06-09T05:37:22.960Z,12.30
2018-06-09T05:39:51.599Z,11.15
2018-06-09T05:42:20.462Z,11.18
2018-06-09T05:44:49.178Z,10.72
2018-06-09T05:47:17.814Z,11.17
2018-06-09T05:49:46.281Z,11.10
2018-06-09T05:52:14.671Z,10.95
2018-06-09T05:54:43.387Z,10.98
2018-06-09T05:57:12.059Z,13.18
2018-06-09T05:59:40.857Z,13.83
2018-06-09T06:02:09.083Z,11.30
2018-06-09T06:04:37.863Z,10.50
2018-06-09T06:07:06.593Z,11.48
2018-06-09T06:09:35.310Z,10.73
2018-06-09T06:12:04.170Z,10.98
2018-06-09T06:14:32.830Z,13.62
2018-06-09T06:17:01.434Z,14.60
2018-06-09T06:19:30.214Z,12.90
2018-06-09T06:21:59.085Z,13.38
2018-06-09T06:24:27.942Z,12.85
2018-06-09T06:26:56.810Z,12.58
2018-06-09T06:29:25.498Z,12.20
2018-06-09T06:31:54.232Z,13.18
2018-06-09T06:34:22.886Z,13.43
2018-06-09T06:36:51.287Z,12.45
2018-06-09T06:39:20.079Z,10.00
2018-06-09T06:41:48.863Z,13.25
2018-06-09T06:44:17.714Z,10.38
2018-06-09T06:46:46.861Z,11.68
2018-06-09T06:49:15.674Z,10.98
2018-06-09T06:51:44.298Z,10.43
2018-06-09T06:54:12.991Z,11.03
2018-06-09T06:56:41.666Z,10.98
2018-06-09T06:59:10.328Z,11.50
2018-06-09T07:01:38.977Z,10.88
2018-06-09T07:04:07.862Z,10.32
2018-06-09T07:06:36.308Z,11.50
2018-06-09T07:09:07.526Z,10.85
2018-06-09T07:11:36.844Z,11.05
2018-06-09T07:14:05.996Z,11.33
2018-06-09T07:16:34.632Z,11.18
2018-06-09T07:19:03.241Z,10.80
2018-06-09T07:21:32.067Z,11.78
2018-06-09T07:24:00.894Z,10.88
2018-06-09T07:26:29.550Z,10.97
2018-06-09T07:28:58.291Z,10.75
2018-06-09T07:31:27.035Z,11.50
2018-06-09T07:33:55.872Z,10.45
2018-06-09T07:36:24.801Z,11.17
2018-06-09T07:38:53.679Z,11.50
2018-06-09T07:41:22.648Z,13.18
2018-06-09T07:43:51.411Z,12.13
2018-06-09T07:46:20.248Z,12.75
2018-06-09T07:48:48.826Z,11.15
2018-06-09T07:51:17.626Z,13.45
2018-06-09T07:53:56.175Z,10.95
2018-06-09T07:56:25.020Z,11.73
2018-06-09T07:58:53.775Z,11.70
2018-06-09T08:01:22.643Z,11.25
2018-06-09T08:03:51.385Z,10.82
2018-06-09T08:06:20.165Z,11.37
2018-06-09T08:08:48.841Z,11.08
2018-06-09T08:11:17.633Z,10.73
2018-06-09T08:13:46.465Z,10.32
2018-06-09T08:16:15.061Z,12.00
2018-06-09T08:18:43.799Z,11.53
2018-06-09T08:21:12.641Z,11.30
2018-06-09T08:23:41.478Z,10.93
2018-06-09T08:26:10.241Z,10.78
2018-06-09T08:28:39.019Z,9.93
2018-06-09T08:31:07.742Z,11.33
2018-06-09T08:33:37.608Z,8.95
2018-06-09T08:36:07.173Z,9.97
2018-06-09T08:38:36.091Z,10.25
2018-06-09T08:41:04.881Z,10.60
2018-06-09T08:43:33.594Z,11.33
2018-06-09T08:46:02.122Z,10.72
2018-06-09T08:48:30.960Z,10.58
2018-06-09T08:50:59.875Z,9.88
2018-06-09T08:53:28.170Z,11.27
2018-06-09T08:55:57.027Z,10.33
2018-06-09T08:58:25.482Z,13.70
2018-06-09T09:00:54.329Z,9.28
2018-06-09T09:03:23.207Z,9.40
2018-06-09T09:05:52.095Z,10.53
2018-06-09T09:08:21.068Z,9.63
2018-06-09T09:10:49.959Z,9.78
2018-06-09T09:13:18.658Z,11.25
2018-06-09T09:15:47.411Z,11.33
2018-06-09T09:18:16.458Z,9.58
2018-06-09T09:20:45.535Z,9.23
2018-06-09T09:23:14.330Z,9.93
2018-06-09T09:25:43.190Z,9.15
2018-06-09T09:28:12.089Z,10.48
2018-06-09T09:30:40.896Z,9.60
2018-06-09T09:33:10.710Z,9.35
2018-06-09T09:35:39.604Z,12.37
2018-06-09T09:38:08.542Z,10.90
2018-06-09T09:40:37.258Z,9.38
2018-06-09T09:43:06.173Z,9.95
2018-06-09T09:45:35.011Z,9.18
2018-06-09T09:48:03.883Z,10.03
2018-06-09T09:50:32.626Z,10.68
2018-06-09T09:53:01.406Z,11.10
2018-06-09T09:55:30.371Z,12.65
2018-06-09T09:58:00.260Z,10.00
2018-06-09T10:00:34.465Z,11.25
2018-06-09T10:03:03.328Z,12.03
2018-06-09T10:05:32.028Z,10.63
2018-06-09T10:08:00.784Z,11.12
2018-06-09T10:10:29.672Z,10.90
2018-06-09T10:12:58.459Z,11.33
2018-06-09T10:15:27.201Z,10.97
2018-06-09T10:17:55.828Z,11.12
2018-06-09T10:20:24.272Z,11.53
2018-06-09T10:22:53.056Z,12.87
2018-06-09T10:25:21.730Z,10.05
2018-06-09T10:27:50.422Z,13.65
2018-06-09T10:30:19.452Z,11.17
2018-06-09T10:32:48.324Z,12.68
2018-06-09T10:35:17.406Z,11.25
2018-06-09T10:37:46.261Z,10.77
2018-06-09T10:40:15.154Z,10.53
2018-06-09T10:42:43.973Z,11.07
2018-06-09T10:45:12.708Z,11.55
2018-06-09T10:47:41.766Z,11.57
2018-06-09T10:50:10.611Z,11.68
2018-06-09T10:52:39.515Z,9.03
2018-06-09T10:55:08.313Z,8.93
2018-06-09T10:57:37.145Z,9.63
2018-06-09T11:00:06.191Z,9.38
2018-06-09T11:02:35.267Z,8.60
2018-06-09T11:05:04.080Z,12.00
2018-06-09T11:07:32.800Z,9.93
2018-06-09T11:10:01.788Z,11.57
2018-06-09T11:12:30.811Z,10.98
2018-06-09T11:14:59.602Z,10.05
2018-06-09T11:17:28.350Z,10.45
2018-06-09T11:19:57.150Z,9.88
2018-06-09T11:22:25.774Z,11.88
2018-06-09T11:24:54.499Z,8.20
2018-06-09T11:27:23.240Z,9.65
2018-06-09T11:29:51.898Z,10.10
2018-06-09T11:32:20.753Z,9.30
2018-06-09T11:34:49.435Z,9.20
2018-06-09T11:37:17.864Z,10.43
2018-06-09T11:39:46.516Z,9.70
2018-06-09T11:42:15.551Z,9.73
2018-06-09T11:44:44.319Z,8.38
2018-06-09T11:47:13.151Z,8.28
2018-06-09T11:49:41.847Z,9.17
2018-06-09T11:52:10.589Z,9.98
2018-06-09T11:54:39.335Z,7.80
2018-06-09T11:57:08.075Z,9.73
2018-06-09T11:59:37.242Z,11.83
2018-06-09T12:02:06.033Z,10.13
2018-06-09T12:04:34.847Z,8.85
2018-06-09T12:07:03.698Z,9.75
2018-06-09T12:09:32.259Z,9.57
2018-06-09T12:12:01.010Z,10.18
2018-06-09T12:14:30.053Z,8.30
2018-06-09T12:16:58.888Z,10.40
2018-06-09T12:19:27.255Z,9.53
2018-06-09T12:21:56.104Z,9.63
2018-06-09T12:24:24.974Z,8.40
2018-06-09T12:26:53.819Z,9.03
2018-06-09T12:29:22.572Z,9.07
2018-06-09T12:31:51.349Z,7.67
2018-06-09T12:34:20.078Z,9.95
2018-06-09T12:36:48.795Z,10.90
2018-06-09T12:39:17.209Z,9.53
2018-06-09T12:41:45.951Z,7.40
2018-06-09T12:44:14.314Z,9.30
2018-06-09T12:46:43.047Z,7.37
2018-06-09T12:49:11.840Z,8.23
2018-06-09T12:51:40.750Z,9.88
2018-06-09T12:54:09.524Z,8.93
2018-06-09T12:56:38.394Z,8.53
2018-06-09T12:59:07.169Z,7.08
2018-06-09T13:01:36.086Z,10.18
2018-06-09T13:04:04.676Z,10.20
2018-06-09T13:06:33.505Z,9.63
2018-06-09T13:09:02.426Z,9.40
2018-06-09T13:11:31.180Z,9.80
2018-06-09T13:13:59.975Z,9.00
2018-06-09T13:16:28.837Z,6.53
2018-06-09T13:18:57.626Z,8.73
2018-06-09T13:21:26.505Z,8.13
2018-06-09T13:23:55.365Z,8.15
2018-06-09T13:26:24.049Z,7.87
2018-06-09T13:28:52.724Z,6.77
2018-06-09T13:31:21.563Z,7.08
2018-06-09T13:33:50.396Z,8.08
2018-06-09T13:36:19.421Z,11.10
2018-06-09T13:38:48.126Z,10.90
2018-06-09T13:41:17.248Z,8.35
2018-06-09T13:43:45.998Z,9.05
2018-06-09T13:46:14.662Z,10.05
2018-06-09T13:48:43.488Z,7.70
2018-06-09T13:51:12.397Z,8.58
2018-06-09T13:53:41.120Z,9.55
2018-06-09T13:56:09.709Z,10.98
2018-06-09T13:58:38.554Z,10.28
2018-06-09T14:01:07.280Z,11.93
2018-06-09T14:03:36.110Z,11.80
2018-06-09T14:06:04.946Z,12.33
2018-06-09T14:08:33.806Z,11.22
2018-06-09T14:11:02.572Z,8.90
2018-06-09T14:13:31.242Z,10.33
2018-06-09T14:15:59.963Z,9.63
2018-06-09T14:18:28.791Z,12.82
2018-06-09T14:20:57.631Z,10.38
2018-06-09T14:23:26.351Z,12.67
2018-06-09T14:25:54.804Z,10.32
2018-06-09T14:28:23.535Z,12.53
2018-06-09T14:30:52.175Z,12.63
2018-06-09T14:33:20.958Z,10.20
2018-06-09T14:35:49.740Z,12.40
2018-06-09T14:38:18.525Z,10.98
2018-06-09T14:40:47.237Z,10.72
2018-06-09T14:43:16.146Z,12.00
2018-06-09T14:45:44.811Z,13.70
2018-06-09T14:48:13.677Z,14.45
2018-06-09T14:50:42.548Z,14.13
2018-06-09T14:53:11.228Z,12.78
2018-06-09T14:55:40.391Z,15.90
2018-06-09T14:58:09.147Z,12.53
2018-06-09T15:00:38.047Z,12.03
2018-06-09T15:03:06.788Z,11.48
2018-06-09T15:05:35.627Z,14.30
2018-06-09T15:08:08.696Z,15.83
2018-06-09T15:10:37.078Z,12.13
2018-06-09T15:13:09.827Z,12.75
2018-06-09T15:15:38.662Z,13.03
2018-06-09T15:18:07.063Z,18.63
2018-06-09T15:20:35.906Z,16.13
2018-06-09T15:23:04.779Z,13.40
2018-06-09T15:25:33.442Z,11.63
2018-06-09T15:28:02.104Z,13.13
2018-06-09T15:30:30.932Z,13.45
2018-06-09T15:32:59.733Z,12.47
2018-06-09T15:35:28.450Z,15.55
2018-06-09T15:37:56.831Z,12.30
2018-06-09T15:40:25.463Z,13.00
2018-06-09T15:42:54.189Z,13.62
2018-06-09T15:45:22.803Z,11.28
2018-06-09T15:47:51.258Z,12.23
2018-06-09T15:50:19.930Z,13.20
2018-06-09T15:52:48.564Z,9.43
2018-06-09T15:55:17.332Z,11.53
2018-06-09T15:57:50.097Z,13.18
2018-06-09T16:00:18.848Z,13.33
2018-06-09T16:02:47.584Z,8.95
2018-06-09T16:05:16.443Z,12.88
2018-06-09T16:07:45.543Z,14.53
2018-06-09T16:10:14.676Z,10.23
2018-06-09T16:12:43.430Z,9.40
2018-06-09T16:15:12.232Z,8.53
2018-06-09T16:17:40.973Z,9.28
2018-06-09T16:20:09.824Z,12.45
2018-06-09T16:22:38.553Z,15.40
2018-06-09T16:25:07.380Z,18.07
2018-06-09T16:27:36.199Z,10.43
2018-06-09T16:30:05.044Z,9.33
2018-06-09T16:32:34.248Z,15.50
2018-06-09T16:35:03.502Z,12.60
2018-06-09T16:37:32.214Z,10.75
2018-06-09T16:40:00.911Z,11.67
2018-06-09T16:42:29.753Z,16.02
2018-06-09T16:44:58.435Z,12.95
2018-06-09T16:47:27.243Z,12.47
2018-06-09T16:49:56.010Z,12.33
2018-06-09T16:52:24.755Z,13.83
2018-06-09T16:54:53.391Z,13.25
2018-06-09T16:57:22.126Z,21.68
2018-06-09T16:59:50.759Z,19.87
2018-06-09T17:02:19.484Z,18.82
2018-06-09T17:04:48.123Z,14.20
2018-06-09T17:07:16.832Z,13.63
2018-06-09T17:09:45.631Z,16.57
2018-06-09T17:12:14.340Z,26.80
2018-06-09T17:14:43.000Z,13.28
2018-06-09T17:17:11.820Z,15.38
2018-06-09T17:19:40.488Z,15.37
2018-06-09T17:22:09.230Z,13.28
2018-06-09T17:24:38.060Z,12.40
2018-06-09T17:27:06.759Z,15.05
2018-06-09T17:29:36.034Z,13.95
2018-06-09T17:32:04.791Z,14.83
2018-06-09T17:34:33.198Z,11.90
2018-06-09T17:37:01.992Z,13.43
2018-06-09T17:39:30.692Z,12.25
2018-06-09T17:41:59.518Z,14.80
2018-06-09T17:44:28.384Z,14.23
2018-06-09T17:46:57.699Z,12.17
2018-06-09T17:49:27.508Z,13.10
2018-06-09T17:51:56.273Z,15.65
2018-06-09T17:54:25.152Z,16.67
2018-06-09T17:57:01.217Z,12.45
2018-06-09T17:59:34.441Z,17.55
2018-06-09T18:02:07.252Z,15.08
2018-06-09T18:04:35.799Z,16.27
2018-06-09T18:07:05.592Z,13.10
2018-06-09T18:09:34.302Z,13.78
2018-06-09T18:12:03.059Z,15.57
2018-06-09T18:14:31.805Z,16.07
2018-06-09T18:17:00.514Z,12.17
2018-06-09T18:19:28.806Z,13.60
2018-06-09T18:21:57.640Z,13.40
2018-06-09T18:24:26.384Z,11.33
2018-06-09T18:26:55.761Z,15.00
2018-06-09T18:29:25.031Z,12.70
2018-06-09T18:31:53.864Z,14.68
2018-06-09T18:34:22.710Z,15.17
2018-06-09T18:36:51.642Z,11.97
2018-06-09T18:39:20.541Z,13.15
2018-06-09T18:41:49.384Z,15.13
2018-06-09T18:44:18.046Z,15.18
2018-06-09T18:46:46.777Z,14.13
2018-06-09T18:49:15.484Z,11.60
2018-06-09T18:51:44.172Z,13.30
2018-06-09T18:54:12.922Z,15.65
2018-06-09T18:56:41.624Z,13.62
2018-06-09T18:59:10.328Z,13.03
2018-06-09T19:01:39.099Z,16.30
2018-06-09T19:04:07.901Z,13.05
2018-06-09T19:06:37.011Z,13.20
2018-06-09T19:09:08.177Z,12.50
2018-06-09T19:11:37.216Z,12.53
2018-06-09T19:14:06.162Z,12.23
2018-06-09T19:16:34.890Z,12.70
2018-06-09T19:19:03.728Z,12.35
2018-06-09T19:21:32.454Z,11.93
2018-06-09T19:24:00.851Z,12.82
2018-06-09T19:29:11.592Z,13.10
2018-06-09T19:31:40.299Z,14.43
2018-06-09T19:34:08.800Z,11.85
2018-06-09T19:36:37.243Z,15.03
2018-06-09T19:39:08.152Z,13.53
2018-06-09T19:41:37.113Z,14.43
2018-06-09T19:44:05.928Z,15.03
2018-06-09T19:46:34.624Z,14.53
2018-06-09T19:49:03.330Z,15.43
2018-06-09T19:51:32.070Z,14.90
2018-06-09T19:54:03.303Z,14.80
2018-06-09T19:56:32.222Z,14.90
2018-06-09T19:59:00.943Z,15.20
2018-06-09T20:01:29.632Z,14.93
2018-06-09T20:03:58.446Z,16.12
2018-06-09T20:06:27.033Z,19.00
2018-06-09T20:08:56.008Z,16.27
2018-06-09T20:11:24.949Z,13.65
2018-06-09T20:13:55.011Z,13.17
2018-06-09T20:16:24.467Z,13.18
2018-06-09T20:18:53.214Z,14.33
2018-06-09T20:21:22.118Z,16.42
2018-06-09T20:23:50.909Z,12.80
2018-06-09T20:26:19.603Z,11.73
2018-06-09T20:28:48.602Z,14.87
2018-06-09T20:31:17.265Z,12.30
2018-06-09T20:33:46.030Z,13.35
2018-06-09T20:36:14.959Z,14.10
2018-06-09T20:38:43.881Z,17.10
2018-06-09T20:41:13.040Z,15.95
2018-06-09T20:43:41.741Z,11.83
2018-06-09T20:46:10.600Z,15.60
2018-06-09T20:48:39.462Z,12.03
2018-06-09T20:51:08.651Z,14.43
2018-06-09T20:53:37.688Z,13.22
2018-06-09T20:56:06.452Z,13.47
2018-06-09T20:58:39.387Z,15.65
2018-06-09T21:01:10.750Z,13.05
2018-06-09T21:03:39.499Z,13.98
2018-06-09T21:06:08.234Z,12.67
2018-06-09T21:08:36.895Z,15.48
2018-06-09T21:11:05.770Z,13.60
2018-06-09T21:13:34.476Z,12.53
2018-06-09T21:16:03.152Z,12.65
2018-06-09T21:18:32.007Z,13.88
2018-06-09T21:21:00.740Z,12.78
2018-06-09T21:23:29.656Z,12.13
2018-06-09T21:25:58.289Z,15.90
2018-06-09T21:28:27.875Z,10.97
2018-06-09T21:31:01.278Z,14.15
2018-06-09T21:34:14.593Z,13.55
2018-06-09T21:36:48.828Z,12.82
2018-06-09T21:39:27.098Z,13.98
2018-06-09T21:42:01.290Z,15.72
2018-06-09T21:44:35.112Z,13.43
2018-06-09T21:47:05.449Z,14.25
2018-06-09T21:49:39.671Z,14.93
2018-06-09T21:52:08.495Z,16.30
2018-06-09T21:54:37.194Z,14.33
2018-06-09T21:57:05.513Z,12.25
2018-06-09T21:59:34.205Z,14.70
2018-06-09T22:02:02.944Z,12.47
2018-06-09T22:04:31.681Z,11.60
2018-06-09T22:07:00.290Z,11.60
2018-06-09T22:09:29.133Z,12.18
2018-06-09T22:11:57.979Z,14.63
2018-06-09T22:14:27.017Z,11.90
2018-06-09T22:16:55.772Z,12.03
2018-06-09T22:19:27.037Z,12.78
2018-06-09T22:21:55.295Z,13.68
2018-06-09T22:24:24.258Z,12.98
2018-06-09T22:26:52.971Z,13.50
2018-06-09T22:29:21.413Z,12.10
2018-06-09T22:31:50.197Z,12.95
2018-06-09T22:34:19.050Z,12.95
2018-06-09T22:36:47.463Z,12.58
2018-06-09T22:39:16.665Z,10.75
2018-06-09T22:41:45.471Z,14.13
2018-06-09T22:44:14.136Z,11.10
2018-06-09T22:46:43.060Z,14.10
2018-06-09T22:49:11.649Z,13.32
2018-06-09T22:51:40.403Z,13.83
2018-06-09T22:54:09.106Z,11.25
2018-06-09T22:56:37.538Z,12.50
2018-06-09T22:59:06.227Z,15.20
2018-06-09T23:01:34.614Z,13.40
2018-06-09T23:04:03.346Z,14.55
2018-06-09T23:06:32.302Z,13.15
2018-06-09T23:09:01.083Z,12.28
2018-06-09T23:11:29.982Z,11.33
2018-06-09T23:13:58.622Z,12.23
2018-06-09T23:16:27.371Z,11.90
2018-06-09T23:18:55.712Z,10.90
2018-06-09T23:21:24.450Z,13.93
2018-06-09T23:23:53.033Z,14.05
2018-06-09T23:26:21.816Z,12.70
2018-06-09T23:28:50.540Z,13.10
2018-06-09T23:31:19.330Z,11.48
2018-06-09T23:33:48.190Z,14.55
2018-06-09T23:36:16.845Z,12.30
2018-06-09T23:38:45.446Z,12.40
2018-06-09T23:41:14.211Z,12.78
2018-06-09T23:43:42.922Z,12.63
2018-06-09T23:46:11.621Z,15.50
2018-06-09T23:48:39.875Z,13.65
2018-06-09T23:51:08.302Z,11.17
2018-06-09T23:53:37.520Z,12.33
2018-06-09T23:56:06.425Z,12.53
2018-06-09T23:58:35.048Z,13.17
